sensor_id;sensor_type;location;lat;lon;timestamp;P1;durP1;ratioP1;P2;durP2;ratioP2
63818;SDS011;49970;54.976;73.248;2023-06-10T00:00:47;29.13;;;11.82;;
63818;SDS011;49970;54.976;73.248;2023-06-10T00:03:13;21.98;;;10.63;;
63818;SDS011;49970;54.976;73.248;2023-06-10T00:05:40;28.52;;;10.98;;
63818;SDS011;49970;54.976;73.248;2023-06-10T00:08:16;35.35;;;10.73;;
63818;SDS011;49970;54.976;73.248;2023-06-10T00:10:46;26.63;;;9.68;;
63818;SDS011;49970;54.976;73.248;2023-06-10T00:13:17;39.78;;;9.50;;
63818;SDS011;49970;54.976;73.248;2023-06-10T00:15:47;23.05;;;9.77;;
63818;SDS011;49970;54.976;73.248;2023-06-10T00:18:20;20.63;;;10.30;;
63818;SDS011;49970;54.976;73.248;2023-06-10T00:20:57;24.05;;;8.10;;
63818;SDS011;49970;54.976;73.248;2023-06-10T00:23:31;19.15;;;8.93;;
63818;SDS011;49970;54.976;73.248;2023-06-10T00:26:04;30.88;;;9.55;;
63818;SDS011;49970;54.976;73.248;2023-06-10T00:28:35;27.48;;;9.77;;
63818;SDS011;49970;54.976;73.248;2023-06-10T00:31:09;33.72;;;10.60;;
63818;SDS011;49970;54.976;73.248;2023-06-10T00:33:40;32.55;;;10.25;;
63818;SDS011;49970;54.976;73.248;2023-06-10T00:36:11;32.45;;;11.80;;
63818;SDS011;49970;54.976;73.248;2023-06-10T00:38:42;33.10;;;10.27;;
63818;SDS011;49970;54.976;73.248;2023-06-10T00:41:55;23.52;;;10.68;;
63818;SDS011;49970;54.976;73.248;2023-06-10T00:44:22;27.65;;;10.05;;
63818;SDS011;49970;54.976;73.248;2023-06-10T00:46:48;30.02;;;10.40;;
63818;SDS011;49970;54.976;73.248;2023-06-10T00:49:16;25.20;;;9.85;;
63818;SDS011;49970;54.976;73.248;2023-06-10T00:51:43;31.55;;;9.25;;
63818;SDS011;49970;54.976;73.248;2023-06-10T00:54:09;35.45;;;9.93;;
63818;SDS011;49970;54.976;73.248;2023-06-10T00:56:40;20.77;;;9.15;;
63818;SDS011;49970;54.976;73.248;2023-06-10T00:59:08;25.67;;;9.18;;
63818;SDS011;49970;54.976;73.248;2023-06-10T01:01:35;27.92;;;8.93;;
63818;SDS011;49970;54.976;73.248;2023-06-10T01:04:03;37.00;;;9.65;;
63818;SDS011;49970;54.976;73.248;2023-06-10T01:06:35;18.60;;;8.70;;
63818;SDS011;49970;54.976;73.248;2023-06-10T01:15:31;14.45;;;6.28;;
63818;SDS011;49970;54.976;73.248;2023-06-10T01:18:01;33.20;;;6.78;;
63818;SDS011;49970;54.976;73.248;2023-06-10T01:20:33;22.60;;;6.30;;
63818;SDS011;49970;54.976;73.248;2023-06-10T01:23:07;19.02;;;6.32;;
63818;SDS011;49970;54.976;73.248;2023-06-10T01:25:46;20.80;;;7.15;;
63818;SDS011;49970;54.976;73.248;2023-06-10T01:28:48;23.95;;;8.45;;
63818;SDS011;49970;54.976;73.248;2023-06-10T01:31:25;28.35;;;8.65;;
63818;SDS011;49970;54.976;73.248;2023-06-10T01:34:07;21.57;;;6.57;;
63818;SDS011;49970;54.976;73.248;2023-06-10T01:36:44;21.58;;;7.20;;
63818;SDS011;49970;54.976;73.248;2023-06-10T01:39:20;27.85;;;7.30;;
63818;SDS011;49970;54.976;73.248;2023-06-10T01:42:48;18.92;;;6.45;;
63818;SDS011;49970;54.976;73.248;2023-06-10T01:45:14;24.20;;;6.78;;
63818;SDS011;49970;54.976;73.248;2023-06-10T01:47:40;29.85;;;7.30;;
63818;SDS011;49970;54.976;73.248;2023-06-10T01:50:07;32.33;;;7.15;;
63818;SDS011;49970;54.976;73.248;2023-06-10T01:52:34;27.98;;;6.88;;
63818;SDS011;49970;54.976;73.248;2023-06-10T01:55:01;35.28;;;7.00;;
63818;SDS011;49970;54.976;73.248;2023-06-10T01:57:27;22.83;;;6.68;;
63818;SDS011;49970;54.976;73.248;2023-06-10T01:59:53;38.40;;;7.25;;
63818;SDS011;49970;54.976;73.248;2023-06-10T02:02:19;23.88;;;6.40;;
63818;SDS011;49970;54.976;73.248;2023-06-10T02:04:47;21.85;;;7.20;;
63818;SDS011;49970;54.976;73.248;2023-06-10T02:07:13;20.70;;;6.60;;
63818;SDS011;49970;54.976;73.248;2023-06-10T02:09:40;25.45;;;7.72;;
63818;SDS011;49970;54.976;73.248;2023-06-10T02:12:06;33.03;;;9.10;;
63818;SDS011;49970;54.976;73.248;2023-06-10T02:14:33;37.30;;;9.75;;
63818;SDS011;49970;54.976;73.248;2023-06-10T02:16:59;32.28;;;9.80;;
63818;SDS011;49970;54.976;73.248;2023-06-10T02:19:26;29.90;;;8.68;;
63818;SDS011;49970;54.976;73.248;2023-06-10T02:21:53;42.58;;;9.70;;
63818;SDS011;49970;54.976;73.248;2023-06-10T02:24:59;37.35;;;9.60;;
63818;SDS011;49970;54.976;73.248;2023-06-10T02:27:25;32.03;;;8.68;;
63818;SDS011;49970;54.976;73.248;2023-06-10T02:29:54;30.73;;;8.70;;
63818;SDS011;49970;54.976;73.248;2023-06-10T02:32:20;27.67;;;8.75;;
63818;SDS011;49970;54.976;73.248;2023-06-10T02:34:47;17.48;;;8.50;;
63818;SDS011;49970;54.976;73.248;2023-06-10T02:37:15;35.15;;;9.18;;
63818;SDS011;49970;54.976;73.248;2023-06-10T02:39:41;25.75;;;9.35;;
63818;SDS011;49970;54.976;73.248;2023-06-10T02:42:10;23.13;;;8.57;;
63818;SDS011;49970;54.976;73.248;2023-06-10T02:44:37;31.33;;;8.00;;
63818;SDS011;49970;54.976;73.248;2023-06-10T02:48:29;27.17;;;9.18;;
63818;SDS011;49970;54.976;73.248;2023-06-10T02:50:57;48.17;;;8.20;;
63818;SDS011;49970;54.976;73.248;2023-06-10T02:53:30;28.48;;;9.02;;
63818;SDS011;49970;54.976;73.248;2023-06-10T02:56:03;14.93;;;7.82;;
63818;SDS011;49970;54.976;73.248;2023-06-10T02:58:30;22.67;;;7.45;;
63818;SDS011;49970;54.976;73.248;2023-06-10T03:00:57;19.10;;;7.55;;
63818;SDS011;49970;54.976;73.248;2023-06-10T03:03:25;18.58;;;7.50;;
63818;SDS011;49970;54.976;73.248;2023-06-10T03:06:05;21.45;;;7.97;;
63818;SDS011;49970;54.976;73.248;2023-06-10T03:08:33;20.02;;;7.78;;
63818;SDS011;49970;54.976;73.248;2023-06-10T03:11:03;27.88;;;8.30;;
63818;SDS011;49970;54.976;73.248;2023-06-10T03:13:32;15.82;;;6.57;;
63818;SDS011;49970;54.976;73.248;2023-06-10T03:15:58;34.38;;;6.85;;
63818;SDS011;49970;54.976;73.248;2023-06-10T03:18:27;31.75;;;7.93;;
63818;SDS011;49970;54.976;73.248;2023-06-10T03:20:54;14.27;;;6.93;;
63818;SDS011;49970;54.976;73.248;2023-06-10T03:23:23;23.15;;;6.90;;
63818;SDS011;49970;54.976;73.248;2023-06-10T03:25:50;21.95;;;6.18;;
63818;SDS011;49970;54.976;73.248;2023-06-10T03:28:18;11.15;;;5.75;;
63818;SDS011;49970;54.976;73.248;2023-06-10T03:30:45;19.50;;;6.20;;
63818;SDS011;49970;54.976;73.248;2023-06-10T03:33:11;14.45;;;5.30;;
63818;SDS011;49970;54.976;73.248;2023-06-10T03:35:40;24.85;;;5.78;;
63818;SDS011;49970;54.976;73.248;2023-06-10T03:38:07;20.08;;;6.00;;
63818;SDS011;49970;54.976;73.248;2023-06-10T03:40:33;31.80;;;5.63;;
63818;SDS011;49970;54.976;73.248;2023-06-10T03:43:00;23.27;;;6.18;;
63818;SDS011;49970;54.976;73.248;2023-06-10T03:45:27;24.10;;;6.13;;
63818;SDS011;49970;54.976;73.248;2023-06-10T03:47:54;31.10;;;7.45;;
63818;SDS011;49970;54.976;73.248;2023-06-10T03:50:26;24.13;;;7.00;;
63818;SDS011;49970;54.976;73.248;2023-06-10T03:52:53;40.03;;;7.22;;
63818;SDS011;49970;54.976;73.248;2023-06-10T03:55:23;13.85;;;7.43;;
63818;SDS011;49970;54.976;73.248;2023-06-10T03:57:49;27.08;;;6.93;;
63818;SDS011;49970;54.976;73.248;2023-06-10T04:00:17;21.95;;;5.95;;
63818;SDS011;49970;54.976;73.248;2023-06-10T04:02:46;21.70;;;6.55;;
63818;SDS011;49970;54.976;73.248;2023-06-10T04:05:35;16.40;;;6.40;;
63818;SDS011;49970;54.976;73.248;2023-06-10T04:08:03;43.25;;;7.13;;
63818;SDS011;49970;54.976;73.248;2023-06-10T04:10:30;23.85;;;6.57;;
63818;SDS011;49970;54.976;73.248;2023-06-10T04:12:57;19.83;;;5.82;;
63818;SDS011;49970;54.976;73.248;2023-06-10T04:15:26;26.50;;;6.13;;
63818;SDS011;49970;54.976;73.248;2023-06-10T04:17:53;23.30;;;5.65;;
63818;SDS011;49970;54.976;73.248;2023-06-10T04:20:22;19.98;;;5.70;;
63818;SDS011;49970;54.976;73.248;2023-06-10T04:22:49;18.70;;;5.72;;
63818;SDS011;49970;54.976;73.248;2023-06-10T04:25:16;20.60;;;7.07;;
63818;SDS011;49970;54.976;73.248;2023-06-10T04:27:43;16.65;;;6.20;;
63818;SDS011;49970;54.976;73.248;2023-06-10T04:30:10;16.90;;;5.88;;
63818;SDS011;49970;54.976;73.248;2023-06-10T04:32:38;24.25;;;6.82;;
63818;SDS011;49970;54.976;73.248;2023-06-10T04:35:07;12.63;;;5.57;;
63818;SDS011;49970;54.976;73.248;2023-06-10T04:37:36;21.65;;;6.18;;
63818;SDS011;49970;54.976;73.248;2023-06-10T04:40:03;11.88;;;5.95;;
63818;SDS011;49970;54.976;73.248;2023-06-10T04:42:31;11.25;;;6.20;;
63818;SDS011;49970;54.976;73.248;2023-06-10T04:44:57;24.05;;;5.93;;
63818;SDS011;49970;54.976;73.248;2023-06-10T04:47:25;15.10;;;5.28;;
63818;SDS011;49970;54.976;73.248;2023-06-10T04:49:52;15.90;;;5.25;;
63818;SDS011;49970;54.976;73.248;2023-06-10T04:52:18;11.30;;;4.68;;
63818;SDS011;49970;54.976;73.248;2023-06-10T04:54:46;18.30;;;4.22;;
63818;SDS011;49970;54.976;73.248;2023-06-10T04:57:14;16.58;;;4.60;;
63818;SDS011;49970;54.976;73.248;2023-06-10T04:59:40;9.35;;;4.93;;
63818;SDS011;49970;54.976;73.248;2023-06-10T05:02:06;14.73;;;4.82;;
63818;SDS011;49970;54.976;73.248;2023-06-10T05:04:32;7.25;;;4.28;;
63818;SDS011;49970;54.976;73.248;2023-06-10T05:06:59;14.63;;;5.05;;
63818;SDS011;49970;54.976;73.248;2023-06-10T05:09:25;19.25;;;5.22;;
63818;SDS011;49970;54.976;73.248;2023-06-10T05:11:51;13.63;;;4.75;;
63818;SDS011;49970;54.976;73.248;2023-06-10T05:14:19;11.20;;;4.90;;
63818;SDS011;49970;54.976;73.248;2023-06-10T05:16:46;16.02;;;4.85;;
63818;SDS011;49970;54.976;73.248;2023-06-10T05:19:16;14.10;;;4.57;;
63818;SDS011;49970;54.976;73.248;2023-06-10T05:21:44;10.65;;;3.85;;
63818;SDS011;49970;54.976;73.248;2023-06-10T05:24:11;9.27;;;3.65;;
63818;SDS011;49970;54.976;73.248;2023-06-10T05:26:37;11.95;;;3.80;;
63818;SDS011;49970;54.976;73.248;2023-06-10T05:29:07;14.55;;;4.10;;
63818;SDS011;49970;54.976;73.248;2023-06-10T05:31:34;17.10;;;3.80;;
63818;SDS011;49970;54.976;73.248;2023-06-10T05:34:01;10.63;;;2.80;;
63818;SDS011;49970;54.976;73.248;2023-06-10T05:36:27;8.80;;;3.50;;
63818;SDS011;49970;54.976;73.248;2023-06-10T05:38:53;11.18;;;3.05;;
63818;SDS011;49970;54.976;73.248;2023-06-10T05:41:19;16.70;;;3.47;;
63818;SDS011;49970;54.976;73.248;2023-06-10T05:43:47;8.88;;;2.50;;
63818;SDS011;49970;54.976;73.248;2023-06-10T05:46:13;10.63;;;3.17;;
63818;SDS011;49970;54.976;73.248;2023-06-10T05:48:58;14.25;;;3.28;;
63818;SDS011;49970;54.976;73.248;2023-06-10T05:51:25;12.55;;;3.08;;
63818;SDS011;49970;54.976;73.248;2023-06-10T05:53:52;12.07;;;3.10;;
63818;SDS011;49970;54.976;73.248;2023-06-10T05:56:19;15.25;;;4.20;;
63818;SDS011;49970;54.976;73.248;2023-06-10T05:58:47;18.48;;;3.60;;
63818;SDS011;49970;54.976;73.248;2023-06-10T06:01:13;8.38;;;2.90;;
63818;SDS011;49970;54.976;73.248;2023-06-10T06:03:39;6.53;;;2.80;;
63818;SDS011;49970;54.976;73.248;2023-06-10T06:06:05;17.38;;;3.25;;
63818;SDS011;49970;54.976;73.248;2023-06-10T06:08:32;13.13;;;3.38;;
63818;SDS011;49970;54.976;73.248;2023-06-10T06:10:58;23.02;;;3.08;;
63818;SDS011;49970;54.976;73.248;2023-06-10T06:13:24;6.47;;;3.42;;
63818;SDS011;49970;54.976;73.248;2023-06-10T06:15:51;10.85;;;3.65;;
63818;SDS011;49970;54.976;73.248;2023-06-10T06:18:17;10.27;;;3.15;;
63818;SDS011;49970;54.976;73.248;2023-06-10T06:20:44;9.52;;;3.10;;
63818;SDS011;49970;54.976;73.248;2023-06-10T06:23:10;17.02;;;3.05;;
63818;SDS011;49970;54.976;73.248;2023-06-10T06:27:06;11.55;;;3.25;;
63818;SDS011;49970;54.976;73.248;2023-06-10T06:29:32;12.77;;;2.80;;
63818;SDS011;49970;54.976;73.248;2023-06-10T06:32:58;12.98;;;2.95;;
63818;SDS011;49970;54.976;73.248;2023-06-10T06:35:24;13.88;;;3.40;;
63818;SDS011;49970;54.976;73.248;2023-06-10T06:37:51;13.60;;;3.35;;
63818;SDS011;49970;54.976;73.248;2023-06-10T06:40:22;12.38;;;3.17;;
63818;SDS011;49970;54.976;73.248;2023-06-10T06:42:54;5.88;;;2.78;;
63818;SDS011;49970;54.976;73.248;2023-06-10T06:45:42;8.90;;;3.13;;
63818;SDS011;49970;54.976;73.248;2023-06-10T06:48:08;14.52;;;3.47;;
63818;SDS011;49970;54.976;73.248;2023-06-10T06:50:34;21.40;;;3.78;;
63818;SDS011;49970;54.976;73.248;2023-06-10T06:53:01;7.10;;;3.22;;
63818;SDS011;49970;54.976;73.248;2023-06-10T06:55:27;7.00;;;2.97;;
63818;SDS011;49970;54.976;73.248;2023-06-10T06:57:53;9.60;;;2.63;;
63818;SDS011;49970;54.976;73.248;2023-06-10T07:00:19;16.55;;;3.05;;
63818;SDS011;49970;54.976;73.248;2023-06-10T07:02:46;16.95;;;2.90;;
63818;SDS011;49970;54.976;73.248;2023-06-10T07:05:12;9.00;;;3.17;;
63818;SDS011;49970;54.976;73.248;2023-06-10T07:07:38;9.60;;;2.80;;
63818;SDS011;49970;54.976;73.248;2023-06-10T07:10:05;13.60;;;2.80;;
63818;SDS011;49970;54.976;73.248;2023-06-10T07:12:31;8.00;;;2.75;;
63818;SDS011;49970;54.976;73.248;2023-06-10T07:14:58;14.48;;;3.30;;
63818;SDS011;49970;54.976;73.248;2023-06-10T07:17:25;19.77;;;3.03;;
63818;SDS011;49970;54.976;73.248;2023-06-10T07:19:53;13.93;;;2.70;;
63818;SDS011;49970;54.976;73.248;2023-06-10T07:22:22;21.90;;;3.10;;
63818;SDS011;49970;54.976;73.248;2023-06-10T07:24:49;5.10;;;2.17;;
63818;SDS011;49970;54.976;73.248;2023-06-10T07:27:16;4.72;;;2.90;;
63818;SDS011;49970;54.976;73.248;2023-06-10T07:29:42;8.50;;;2.58;;
63818;SDS011;49970;54.976;73.248;2023-06-10T07:32:09;11.57;;;2.47;;
63818;SDS011;49970;54.976;73.248;2023-06-10T07:34:35;6.32;;;2.40;;
63818;SDS011;49970;54.976;73.248;2023-06-10T07:37:01;8.85;;;2.45;;
63818;SDS011;49970;54.976;73.248;2023-06-10T07:39:28;5.60;;;2.45;;
63818;SDS011;49970;54.976;73.248;2023-06-10T07:41:54;3.28;;;2.50;;
63818;SDS011;49970;54.976;73.248;2023-06-10T07:44:23;10.32;;;3.58;;
63818;SDS011;49970;54.976;73.248;2023-06-10T07:46:49;8.80;;;2.63;;
63818;SDS011;49970;54.976;73.248;2023-06-10T07:49:16;22.88;;;2.80;;
63818;SDS011;49970;54.976;73.248;2023-06-10T07:51:42;6.22;;;2.00;;
63818;SDS011;49970;54.976;73.248;2023-06-10T07:54:08;9.52;;;2.33;;
63818;SDS011;49970;54.976;73.248;2023-06-10T07:56:34;22.23;;;2.53;;
63818;SDS011;49970;54.976;73.248;2023-06-10T07:59:01;20.60;;;2.55;;
63818;SDS011;49970;54.976;73.248;2023-06-10T08:01:27;18.17;;;2.35;;
63818;SDS011;49970;54.976;73.248;2023-06-10T08:03:55;18.77;;;2.70;;
63818;SDS011;49970;54.976;73.248;2023-06-10T08:06:21;15.45;;;2.70;;
63818;SDS011;49970;54.976;73.248;2023-06-10T08:08:48;28.73;;;3.92;;
63818;SDS011;49970;54.976;73.248;2023-06-10T08:11:14;23.65;;;3.35;;
63818;SDS011;49970;54.976;73.248;2023-06-10T08:13:40;27.25;;;3.28;;
63818;SDS011;49970;54.976;73.248;2023-06-10T08:16:07;12.65;;;3.35;;
63818;SDS011;49970;54.976;73.248;2023-06-10T08:18:33;9.20;;;2.58;;
63818;SDS011;49970;54.976;73.248;2023-06-10T08:20:59;5.50;;;2.38;;
63818;SDS011;49970;54.976;73.248;2023-06-10T08:23:26;14.23;;;2.70;;
63818;SDS011;49970;54.976;73.248;2023-06-10T08:25:52;10.38;;;2.47;;
63818;SDS011;49970;54.976;73.248;2023-06-10T08:28:18;30.95;;;3.22;;
63818;SDS011;49970;54.976;73.248;2023-06-10T08:30:44;5.70;;;2.50;;
63818;SDS011;49970;54.976;73.248;2023-06-10T08:33:11;14.13;;;4.60;;
63818;SDS011;49970;54.976;73.248;2023-06-10T08:35:37;20.15;;;3.38;;
63818;SDS011;49970;54.976;73.248;2023-06-10T08:38:03;11.50;;;2.58;;
63818;SDS011;49970;54.976;73.248;2023-06-10T08:40:30;11.65;;;2.70;;
63818;SDS011;49970;54.976;73.248;2023-06-10T08:45:33;25.20;;;3.85;;
63818;SDS011;49970;54.976;73.248;2023-06-10T08:48:04;16.88;;;3.70;;
63818;SDS011;49970;54.976;73.248;2023-06-10T08:50:38;7.45;;;3.03;;
63818;SDS011;49970;54.976;73.248;2023-06-10T08:53:05;15.57;;;3.90;;
63818;SDS011;49970;54.976;73.248;2023-06-10T08:55:33;12.10;;;4.25;;
63818;SDS011;49970;54.976;73.248;2023-06-10T08:58:02;19.50;;;4.20;;
63818;SDS011;49970;54.976;73.248;2023-06-10T09:00:30;16.05;;;4.13;;
63818;SDS011;49970;54.976;73.248;2023-06-10T09:02:58;16.00;;;3.75;;
63818;SDS011;49970;54.976;73.248;2023-06-10T09:05:24;17.63;;;4.07;;
63818;SDS011;49970;54.976;73.248;2023-06-10T09:07:53;10.60;;;4.30;;
63818;SDS011;49970;54.976;73.248;2023-06-10T09:10:22;33.55;;;4.05;;
63818;SDS011;49970;54.976;73.248;2023-06-10T09:12:48;11.88;;;3.25;;
63818;SDS011;49970;54.976;73.248;2023-06-10T09:15:15;17.33;;;3.72;;
63818;SDS011;49970;54.976;73.248;2023-06-10T09:17:43;24.02;;;5.28;;
63818;SDS011;49970;54.976;73.248;2023-06-10T09:20:10;23.63;;;3.55;;
63818;SDS011;49970;54.976;73.248;2023-06-10T09:22:37;7.80;;;3.67;;
63818;SDS011;49970;54.976;73.248;2023-06-10T09:27:32;7.68;;;3.47;;
63818;SDS011;49970;54.976;73.248;2023-06-10T09:30:23;6.07;;;3.50;;
63818;SDS011;49970;54.976;73.248;2023-06-10T09:32:54;11.00;;;3.50;;
63818;SDS011;49970;54.976;73.248;2023-06-10T09:35:24;9.00;;;2.95;;
63818;SDS011;49970;54.976;73.248;2023-06-10T09:37:57;14.10;;;4.57;;
63818;SDS011;49970;54.976;73.248;2023-06-10T09:40:24;13.48;;;5.78;;
63818;SDS011;49970;54.976;73.248;2023-06-10T09:42:55;18.02;;;4.47;;
63818;SDS011;49970;54.976;73.248;2023-06-10T09:45:22;8.20;;;5.00;;
63818;SDS011;49970;54.976;73.248;2023-06-10T09:47:53;7.55;;;4.63;;
63818;SDS011;49970;54.976;73.248;2023-06-10T09:50:19;10.85;;;4.47;;
63818;SDS011;49970;54.976;73.248;2023-06-10T09:52:46;12.55;;;3.80;;
63818;SDS011;49970;54.976;73.248;2023-06-10T09:55:14;13.00;;;3.25;;
63818;SDS011;49970;54.976;73.248;2023-06-10T09:57:40;5.93;;;3.05;;
63818;SDS011;49970;54.976;73.248;2023-06-10T10:00:10;7.28;;;3.15;;
63818;SDS011;49970;54.976;73.248;2023-06-10T10:02:53;15.82;;;3.92;;
63818;SDS011;49970;54.976;73.248;2023-06-10T10:05:20;9.30;;;3.47;;
63818;SDS011;49970;54.976;73.248;2023-06-10T10:07:47;9.20;;;3.38;;
63818;SDS011;49970;54.976;73.248;2023-06-10T10:10:15;12.45;;;3.20;;
63818;SDS011;49970;54.976;73.248;2023-06-10T10:12:42;14.90;;;2.90;;
63818;SDS011;49970;54.976;73.248;2023-06-10T10:15:12;8.77;;;3.35;;
63818;SDS011;49970;54.976;73.248;2023-06-10T10:20:37;23.27;;;5.15;;
63818;SDS011;49970;54.976;73.248;2023-06-10T10:23:12;12.90;;;5.88;;
63818;SDS011;49970;54.976;73.248;2023-06-10T10:25:44;48.67;;;8.05;;
63818;SDS011;49970;54.976;73.248;2023-06-10T10:28:16;13.68;;;4.75;;
63818;SDS011;49970;54.976;73.248;2023-06-10T10:30:52;28.60;;;4.57;;
63818;SDS011;49970;54.976;73.248;2023-06-10T10:33:21;15.13;;;4.90;;
63818;SDS011;49970;54.976;73.248;2023-06-10T10:35:54;22.58;;;4.53;;
63818;SDS011;49970;54.976;73.248;2023-06-10T10:38:21;12.90;;;3.70;;
63818;SDS011;49970;54.976;73.248;2023-06-10T10:40:47;10.52;;;3.72;;
63818;SDS011;49970;54.976;73.248;2023-06-10T10:43:15;14.05;;;5.15;;
63818;SDS011;49970;54.976;73.248;2023-06-10T10:45:42;27.20;;;4.00;;
63818;SDS011;49970;54.976;73.248;2023-06-10T10:48:11;21.13;;;8.25;;
63818;SDS011;49970;54.976;73.248;2023-06-10T10:50:40;17.98;;;3.67;;
63818;SDS011;49970;54.976;73.248;2023-06-10T10:53:06;16.88;;;8.07;;
63818;SDS011;49970;54.976;73.248;2023-06-10T10:55:34;14.88;;;4.10;;
63818;SDS011;49970;54.976;73.248;2023-06-10T10:58:04;11.73;;;5.43;;
63818;SDS011;49970;54.976;73.248;2023-06-10T11:00:43;10.77;;;5.45;;
63818;SDS011;49970;54.976;73.248;2023-06-10T11:03:13;9.00;;;5.30;;
63818;SDS011;49970;54.976;73.248;2023-06-10T11:05:43;15.93;;;2.95;;
63818;SDS011;49970;54.976;73.248;2023-06-10T11:08:15;6.97;;;2.50;;
63818;SDS011;49970;54.976;73.248;2023-06-10T11:11:17;9.10;;;3.10;;
63818;SDS011;49970;54.976;73.248;2023-06-10T11:16:29;28.70;;;15.03;;
63818;SDS011;49970;54.976;73.248;2023-06-10T11:19:31;27.73;;;15.05;;
63818;SDS011;49970;54.976;73.248;2023-06-10T11:21:59;28.23;;;17.65;;
63818;SDS011;49970;54.976;73.248;2023-06-10T11:24:28;25.88;;;10.93;;
63818;SDS011;49970;54.976;73.248;2023-06-10T11:26:55;66.95;;;45.25;;
63818;SDS011;49970;54.976;73.248;2023-06-10T11:29:58;264.58;;;187.63;;
63818;SDS011;49970;54.976;73.248;2023-06-10T11:32:28;267.98;;;191.13;;
63818;SDS011;49970;54.976;73.248;2023-06-10T11:34:57;15.48;;;13.05;;
63818;SDS011;49970;54.976;73.248;2023-06-10T11:37:23;10.82;;;3.20;;
63818;SDS011;49970;54.976;73.248;2023-06-10T11:39:53;6.82;;;2.67;;
63818;SDS011;49970;54.976;73.248;2023-06-10T11:42:23;12.35;;;3.30;;
63818;SDS011;49970;54.976;73.248;2023-06-10T11:44:49;17.20;;;3.53;;
63818;SDS011;49970;54.976;73.248;2023-06-10T11:47:19;14.20;;;3.08;;
63818;SDS011;49970;54.976;73.248;2023-06-10T11:49:58;9.82;;;3.78;;
63818;SDS011;49970;54.976;73.248;2023-06-10T11:52:28;15.68;;;2.78;;
63818;SDS011;49970;54.976;73.248;2023-06-10T11:54:57;16.35;;;2.72;;
63818;SDS011;49970;54.976;73.248;2023-06-10T11:57:24;21.35;;;2.63;;
63818;SDS011;49970;54.976;73.248;2023-06-10T11:59:50;23.33;;;6.47;;
63818;SDS011;49970;54.976;73.248;2023-06-10T12:02:17;17.17;;;2.80;;
63818;SDS011;49970;54.976;73.248;2023-06-10T12:04:44;15.75;;;2.80;;
63818;SDS011;49970;54.976;73.248;2023-06-10T12:07:17;4.95;;;2.30;;
63818;SDS011;49970;54.976;73.248;2023-06-10T12:09:58;8.38;;;1.98;;
63818;SDS011;49970;54.976;73.248;2023-06-10T12:12:25;8.20;;;2.60;;
63818;SDS011;49970;54.976;73.248;2023-06-10T12:19:58;11.43;;;2.67;;
63818;SDS011;49970;54.976;73.248;2023-06-10T12:22:26;22.52;;;2.50;;
63818;SDS011;49970;54.976;73.248;2023-06-10T12:25:02;13.93;;;3.65;;
63818;SDS011;49970;54.976;73.248;2023-06-10T12:27:30;32.65;;;6.75;;
63818;SDS011;49970;54.976;73.248;2023-06-10T12:29:57;6.22;;;3.33;;
63818;SDS011;49970;54.976;73.248;2023-06-10T12:32:39;7.47;;;3.20;;
63818;SDS011;49970;54.976;73.248;2023-06-10T12:35:11;21.40;;;3.10;;
63818;SDS011;49970;54.976;73.248;2023-06-10T12:40:25;10.73;;;2.22;;
63818;SDS011;49970;54.976;73.248;2023-06-10T12:42:59;13.13;;;2.40;;
63818;SDS011;49970;54.976;73.248;2023-06-10T12:45:26;15.98;;;2.80;;
63818;SDS011;49970;54.976;73.248;2023-06-10T12:50:36;10.05;;;1.90;;
63818;SDS011;49970;54.976;73.248;2023-06-10T12:53:03;16.30;;;3.00;;
63818;SDS011;49970;54.976;73.248;2023-06-10T12:55:30;16.13;;;4.63;;
63818;SDS011;49970;54.976;73.248;2023-06-10T12:57:56;9.38;;;2.35;;
63818;SDS011;49970;54.976;73.248;2023-06-10T13:00:22;13.38;;;2.42;;
63818;SDS011;49970;54.976;73.248;2023-06-10T13:02:51;9.77;;;2.38;;
63818;SDS011;49970;54.976;73.248;2023-06-10T13:05:19;13.10;;;3.05;;
63818;SDS011;49970;54.976;73.248;2023-06-10T13:07:46;4.88;;;1.90;;
63818;SDS011;49970;54.976;73.248;2023-06-10T13:10:13;16.35;;;2.70;;
63818;SDS011;49970;54.976;73.248;2023-06-10T13:12:40;4.30;;;1.80;;
63818;SDS011;49970;54.976;73.248;2023-06-10T13:15:07;6.78;;;1.98;;
63818;SDS011;49970;54.976;73.248;2023-06-10T13:17:33;14.80;;;2.35;;
63818;SDS011;49970;54.976;73.248;2023-06-10T13:20:04;5.18;;;1.63;;
63818;SDS011;49970;54.976;73.248;2023-06-10T13:22:31;4.72;;;1.60;;
63818;SDS011;49970;54.976;73.248;2023-06-10T13:24:59;9.90;;;1.98;;
63818;SDS011;49970;54.976;73.248;2023-06-10T13:27:25;11.55;;;1.88;;
63818;SDS011;49970;54.976;73.248;2023-06-10T13:29:52;9.00;;;2.15;;
63818;SDS011;49970;54.976;73.248;2023-06-10T13:32:19;17.38;;;2.22;;
63818;SDS011;49970;54.976;73.248;2023-06-10T13:34:45;9.38;;;2.38;;
63818;SDS011;49970;54.976;73.248;2023-06-10T13:37:11;11.07;;;2.13;;
63818;SDS011;49970;54.976;73.248;2023-06-10T13:39:38;9.73;;;2.33;;
63818;SDS011;49970;54.976;73.248;2023-06-10T13:42:05;4.25;;;2.05;;
63818;SDS011;49970;54.976;73.248;2023-06-10T13:44:33;12.02;;;3.65;;
63818;SDS011;49970;54.976;73.248;2023-06-10T13:47:02;17.50;;;2.38;;
63818;SDS011;49970;54.976;73.248;2023-06-10T13:49:29;9.23;;;2.22;;
63818;SDS011;49970;54.976;73.248;2023-06-10T13:51:55;14.38;;;1.70;;
63818;SDS011;49970;54.976;73.248;2023-06-10T13:54:21;5.05;;;1.40;;
63818;SDS011;49970;54.976;73.248;2023-06-10T13:56:48;4.30;;;1.48;;
63818;SDS011;49970;54.976;73.248;2023-06-10T13:59:14;7.68;;;1.40;;
63818;SDS011;49970;54.976;73.248;2023-06-10T14:01:41;5.75;;;1.60;;
63818;SDS011;49970;54.976;73.248;2023-06-10T14:04:07;36.67;;;2.70;;
63818;SDS011;49970;54.976;73.248;2023-06-10T14:06:34;23.00;;;5.75;;
63818;SDS011;49970;54.976;73.248;2023-06-10T14:09:00;6.88;;;4.90;;
63818;SDS011;49970;54.976;73.248;2023-06-10T14:11:26;14.00;;;5.13;;
63818;SDS011;49970;54.976;73.248;2023-06-10T14:13:53;20.10;;;5.90;;
63818;SDS011;49970;54.976;73.248;2023-06-10T14:16:21;32.42;;;5.50;;
63818;SDS011;49970;54.976;73.248;2023-06-10T14:18:48;21.65;;;7.43;;
63818;SDS011;49970;54.976;73.248;2023-06-10T14:21:15;33.35;;;8.90;;
63818;SDS011;49970;54.976;73.248;2023-06-10T14:23:42;40.42;;;9.23;;
63818;SDS011;49970;54.976;73.248;2023-06-10T14:26:09;19.48;;;8.25;;
63818;SDS011;49970;54.976;73.248;2023-06-10T14:28:36;15.88;;;7.38;;
63818;SDS011;49970;54.976;73.248;2023-06-10T14:31:02;16.67;;;7.32;;
63818;SDS011;49970;54.976;73.248;2023-06-10T14:33:28;23.35;;;7.80;;
63818;SDS011;49970;54.976;73.248;2023-06-10T14:35:54;26.35;;;7.50;;
63818;SDS011;49970;54.976;73.248;2023-06-10T14:38:21;17.30;;;5.40;;
63818;SDS011;49970;54.976;73.248;2023-06-10T14:40:47;13.82;;;5.38;;
63818;SDS011;49970;54.976;73.248;2023-06-10T14:43:13;24.73;;;5.05;;
63818;SDS011;49970;54.976;73.248;2023-06-10T14:45:40;17.38;;;6.35;;
63818;SDS011;49970;54.976;73.248;2023-06-10T14:48:08;14.82;;;4.82;;
63818;SDS011;49970;54.976;73.248;2023-06-10T14:50:34;15.48;;;5.35;;
63818;SDS011;49970;54.976;73.248;2023-06-10T14:53:01;14.35;;;5.03;;
63818;SDS011;49970;54.976;73.248;2023-06-10T14:55:27;13.15;;;6.05;;
63818;SDS011;49970;54.976;73.248;2023-06-10T14:57:54;14.20;;;5.78;;
63818;SDS011;49970;54.976;73.248;2023-06-10T15:00:22;17.50;;;6.65;;
63818;SDS011;49970;54.976;73.248;2023-06-10T15:02:49;16.75;;;8.43;;
63818;SDS011;49970;54.976;73.248;2023-06-10T15:05:16;17.90;;;9.77;;